createdAt,value
2023-02-11T00:00:54.810Z,25.50
2023-02-11T00:03:21.448Z,24.70
2023-02-11T00:06:00.412Z,23.87
2023-02-11T00:08:26.907Z,23.73
2023-02-11T00:10:58.010Z,24.67
2023-02-11T00:13:25.119Z,22.60
2023-02-11T00:15:51.819Z,26.70
2023-02-11T00:18:18.500Z,24.60
2023-02-11T00:20:44.887Z,23.70
2023-02-11T00:23:11.536Z,24.27
2023-02-11T00:25:42.056Z,23.30
2023-02-11T00:28:09.623Z,25.43
2023-02-11T00:30:36.681Z,24.10
2023-02-11T00:33:03.982Z,24.93
2023-02-11T00:35:30.406Z,23.00
2023-02-11T00:37:57.080Z,26.53
2023-02-11T00:40:23.703Z,25.47
2023-02-11T00:42:50.137Z,27.73
2023-02-11T00:45:16.564Z,28.20
2023-02-11T00:47:43.022Z,26.90
2023-02-11T00:50:09.603Z,25.97
2023-02-11T00:52:36.003Z,23.60
2023-02-11T00:55:02.388Z,26.67
2023-02-11T00:57:28.874Z,24.63
2023-02-11T00:59:55.299Z,24.47
2023-02-11T01:02:21.771Z,25.70
2023-02-11T01:04:48.260Z,24.03
2023-02-11T01:07:14.860Z,26.77
2023-02-11T01:09:41.319Z,24.43
2023-02-11T01:12:07.714Z,25.30
2023-02-11T01:14:34.088Z,23.93
2023-02-11T01:17:00.474Z,24.80
2023-02-11T01:19:26.904Z,25.63
2023-02-11T01:21:53.306Z,24.10
2023-02-11T01:24:19.682Z,27.80
2023-02-11T01:26:46.162Z,25.30
2023-02-11T01:29:12.587Z,25.80
2023-02-11T01:31:39.108Z,23.53
2023-02-11T01:34:05.646Z,25.87
2023-02-11T01:36:32.080Z,22.63
2023-02-11T01:38:58.609Z,22.73
2023-02-11T01:41:25.022Z,22.67
2023-02-11T01:43:51.479Z,22.90
2023-02-11T01:46:20.529Z,21.40
2023-02-11T01:48:51.698Z,22.40
2023-02-11T01:51:25.735Z,20.57
2023-02-11T01:54:29.033Z,22.60
2023-02-11T01:57:17.708Z,23.80
2023-02-11T01:59:56.336Z,24.37
2023-02-11T02:02:30.546Z,23.57
2023-02-11T02:05:05.988Z,24.00
2023-02-11T02:07:46.056Z,22.87
2023-02-11T02:10:19.098Z,24.10
2023-02-11T02:12:45.534Z,24.83
2023-02-11T02:15:19.381Z,25.40
2023-02-11T02:17:57.006Z,22.67
2023-02-11T02:20:44.302Z,23.70
2023-02-11T02:23:41.436Z,22.97
2023-02-11T02:26:27.400Z,22.60
2023-02-11T02:29:15.713Z,24.67
2023-02-11T02:31:59.360Z,24.47
2023-02-11T02:34:38.100Z,24.07
2023-02-11T02:37:17.235Z,24.40
2023-02-11T02:39:47.774Z,24.73
2023-02-11T02:42:15.003Z,23.10
2023-02-11T02:44:41.509Z,22.50
2023-02-11T02:47:07.953Z,21.97
2023-02-11T02:49:34.356Z,22.13
2023-02-11T02:52:07.800Z,22.17
2023-02-11T02:54:44.975Z,23.07
2023-02-11T02:57:30.012Z,23.60
2023-02-11T03:00:22.715Z,21.93
2023-02-11T03:03:07.664Z,23.20
2023-02-11T03:06:15.380Z,24.97
2023-02-11T03:08:56.970Z,23.23
2023-02-11T03:11:25.646Z,23.67
2023-02-11T03:13:54.562Z,23.10
2023-02-11T03:16:27.809Z,23.97
2023-02-11T03:19:05.157Z,21.90
2023-02-11T03:21:33.625Z,24.50
2023-02-11T03:24:05.814Z,22.07
2023-02-11T03:26:42.878Z,23.27
2023-02-11T03:29:24.265Z,21.70
2023-02-11T03:32:27.915Z,22.80
2023-02-11T03:35:32.199Z,23.10
2023-02-11T03:38:11.524Z,20.90
2023-02-11T03:40:43.578Z,23.70
2023-02-11T03:43:20.262Z,23.03
2023-02-11T03:45:50.781Z,23.83
2023-02-11T03:48:25.339Z,23.37
2023-02-11T03:50:54.021Z,24.87
2023-02-11T03:53:22.755Z,23.40
2023-02-11T03:55:51.613Z,23.93
2023-02-11T03:58:18.221Z,22.17
2023-02-11T04:00:45.008Z,23.27
2023-02-11T04:03:12.773Z,23.57
2023-02-11T04:05:39.586Z,23.43
2023-02-11T04:08:06.504Z,24.57
2023-02-11T04:10:33.367Z,24.50
2023-02-11T04:12:59.821Z,22.90
2023-02-11T04:15:26.256Z,22.57
2023-02-11T04:17:52.892Z,24.77
2023-02-11T04:20:19.516Z,23.73
2023-02-11T04:22:45.931Z,21.37
2023-02-11T04:25:12.455Z,24.37
2023-02-11T04:27:38.909Z,23.27
2023-02-11T04:30:06.361Z,22.33
2023-02-11T04:32:32.794Z,22.70
2023-02-11T04:34:59.191Z,22.77
2023-02-11T04:37:25.614Z,26.07
2023-02-11T04:39:52.029Z,25.57
2023-02-11T04:42:18.412Z,25.97
2023-02-11T04:44:44.835Z,25.17
2023-02-11T04:47:13.375Z,24.73
2023-02-11T04:49:39.779Z,24.87
2023-02-11T04:52:06.241Z,23.77
2023-02-11T04:54:32.688Z,23.90
2023-02-11T04:56:59.094Z,22.40
2023-02-11T04:59:25.515Z,21.60
2023-02-11T05:01:51.951Z,23.83
2023-02-11T05:04:18.668Z,24.80
2023-02-11T05:06:45.105Z,21.70
2023-02-11T05:09:13.231Z,23.93
2023-02-11T05:11:40.077Z,22.40
2023-02-11T05:14:06.940Z,24.07
2023-02-11T05:16:33.978Z,24.13
2023-02-11T05:19:00.562Z,21.80
2023-02-11T05:21:26.985Z,22.30
2023-02-11T05:23:53.468Z,25.57
2023-02-11T05:26:19.880Z,25.83
2023-02-11T05:28:46.349Z,24.93
2023-02-11T05:31:14.613Z,23.50
2023-02-11T05:33:41.741Z,23.40
2023-02-11T05:36:10.381Z,22.67
2023-02-11T05:38:37.687Z,25.40
2023-02-11T05:41:05.274Z,23.30
2023-02-11T05:43:31.784Z,23.17
2023-02-11T05:45:58.622Z,22.80
2023-02-11T05:48:25.082Z,22.40
2023-02-11T05:50:51.565Z,22.50
2023-02-11T05:53:17.996Z,21.73
2023-02-11T05:55:44.794Z,20.73
2023-02-11T05:58:11.383Z,20.77
2023-02-11T06:00:38.163Z,21.80
2023-02-11T06:03:04.788Z,19.20
2023-02-11T06:05:31.932Z,23.00
2023-02-11T06:07:58.613Z,24.30
2023-02-11T06:10:25.094Z,22.63
2023-02-11T06:12:51.541Z,23.47
2023-02-11T06:15:18.174Z,22.70
2023-02-11T06:17:44.580Z,21.43
2023-02-11T06:20:11.792Z,20.87
2023-02-11T06:22:38.627Z,22.47
2023-02-11T06:25:05.616Z,22.17
2023-02-11T06:27:32.270Z,21.30
2023-02-11T06:29:58.801Z,22.20
2023-02-11T06:32:43.219Z,23.13
2023-02-11T06:35:12.359Z,23.30
2023-02-11T06:37:39.648Z,23.00
2023-02-11T06:40:06.362Z,22.23
2023-02-11T06:42:32.828Z,21.43
2023-02-11T06:44:59.300Z,22.33
2023-02-11T06:47:25.789Z,21.60
2023-02-11T06:49:52.206Z,23.33
2023-02-11T06:52:18.590Z,23.43
2023-02-11T06:54:44.978Z,22.37
2023-02-11T06:57:11.497Z,22.63
2023-02-11T06:59:37.941Z,22.73
2023-02-11T07:02:04.554Z,23.93
2023-02-11T07:04:30.955Z,23.70
2023-02-11T07:06:57.385Z,26.10
2023-02-11T07:09:23.799Z,25.30
2023-02-11T07:11:50.223Z,27.00
2023-02-11T07:14:16.952Z,27.27
2023-02-11T07:16:43.420Z,25.77
2023-02-11T07:19:10.017Z,25.37
2023-02-11T07:21:36.448Z,26.23
2023-02-11T07:24:10.329Z,28.10
2023-02-11T07:26:37.282Z,27.27
2023-02-11T07:29:03.707Z,26.90
2023-02-11T07:31:30.843Z,26.20
2023-02-11T07:34:00.182Z,24.23
2023-02-11T07:36:29.187Z,25.97
2023-02-11T07:38:55.688Z,27.90
2023-02-11T07:41:23.497Z,25.30
2023-02-11T07:43:50.300Z,25.47
2023-02-11T07:46:24.975Z,26.13
2023-02-11T07:48:51.944Z,26.40
2023-02-11T07:51:24.186Z,24.43
2023-02-11T07:53:51.855Z,29.70
2023-02-11T07:56:20.085Z,28.80
2023-02-11T07:58:46.966Z,29.00
2023-02-11T08:01:19.371Z,31.00
2023-02-11T08:03:45.877Z,28.43
2023-02-11T08:06:14.678Z,29.87
2023-02-11T08:08:41.781Z,27.53
2023-02-11T08:11:21.265Z,31.07
2023-02-11T08:13:48.230Z,30.20
2023-02-11T08:16:23.991Z,28.60
2023-02-11T08:18:51.773Z,26.30
2023-02-11T08:21:19.745Z,28.40
2023-02-11T08:23:47.203Z,29.60
2023-02-11T08:26:16.507Z,29.10
2023-02-11T08:28:45.474Z,31.27
2023-02-11T08:31:18.425Z,31.63
2023-02-11T08:33:45.971Z,31.70
2023-02-11T08:36:15.495Z,29.73
2023-02-11T08:38:42.311Z,28.30
2023-02-11T08:41:08.902Z,28.60
2023-02-11T08:43:36.390Z,28.23
2023-02-11T08:46:03.337Z,33.30
2023-02-11T08:48:30.226Z,32.10
2023-02-11T08:50:57.027Z,33.90
2023-02-11T08:53:23.858Z,34.07
2023-02-11T08:55:52.002Z,32.43
2023-02-11T08:58:19.291Z,32.50
2023-02-11T09:00:46.554Z,32.67
2023-02-11T09:03:14.714Z,33.10
2023-02-11T09:05:43.238Z,34.20
2023-02-11T09:08:10.128Z,32.93
2023-02-11T09:10:36.553Z,32.67
2023-02-11T09:13:03.453Z,32.30
2023-02-11T09:15:30.398Z,34.27
2023-02-11T09:17:57.042Z,35.33
2023-02-11T09:20:23.874Z,36.43
2023-02-11T09:22:50.551Z,33.23
2023-02-11T09:25:16.982Z,36.50
2023-02-11T09:27:43.440Z,34.47
2023-02-11T09:30:10.489Z,36.37
2023-02-11T09:32:37.153Z,33.63
2023-02-11T09:35:04.350Z,31.50
2023-02-11T09:37:30.759Z,33.87
2023-02-11T09:39:57.146Z,32.27
2023-02-11T09:42:59.753Z,31.23
2023-02-11T09:45:30.141Z,32.37
2023-02-11T09:48:06.353Z,31.57
2023-02-11T09:50:40.797Z,31.97
2023-02-11T09:53:41.355Z,32.73
2023-02-11T09:56:13.810Z,32.40
2023-02-11T09:58:43.321Z,33.53
2023-02-11T10:01:35.420Z,33.00
2023-02-11T10:04:23.034Z,31.17
2023-02-11T10:06:55.052Z,31.13
2023-02-11T10:09:45.680Z,30.37
2023-02-11T10:12:18.041Z,31.00
2023-02-11T10:15:09.337Z,33.30
2023-02-11T10:17:44.791Z,33.97
2023-02-11T10:20:17.330Z,33.30
2023-02-11T10:22:50.451Z,32.43
2023-02-11T10:25:27.569Z,32.97
2023-02-11T10:27:58.065Z,33.53
2023-02-11T10:30:37.119Z,33.57
2023-02-11T10:33:32.410Z,32.87
2023-02-11T10:35:59.325Z,31.17
2023-02-11T10:38:26.362Z,34.00
2023-02-11T10:40:52.949Z,33.50
2023-02-11T10:43:24.392Z,34.63
2023-02-11T10:45:53.178Z,34.77
2023-02-11T10:48:44.045Z,32.33
2023-02-11T10:51:14.649Z,33.53
2023-02-11T10:53:41.361Z,34.00
2023-02-11T10:56:12.711Z,33.77
2023-02-11T10:59:01.296Z,33.10
2023-02-11T11:01:52.508Z,34.60
2023-02-11T11:04:35.545Z,35.30
2023-02-11T11:07:16.848Z,33.80
2023-02-11T11:09:50.352Z,34.73
2023-02-11T11:12:25.853Z,33.03
2023-02-11T11:14:56.263Z,33.30
2023-02-11T11:17:22.801Z,35.30
2023-02-11T11:19:49.208Z,32.93
2023-02-11T11:22:22.243Z,33.70
2023-02-11T11:24:55.226Z,32.37
2023-02-11T11:27:24.741Z,35.07
2023-02-11T11:29:56.112Z,35.87
2023-02-11T11:32:25.579Z,34.40
2023-02-11T11:34:59.817Z,40.73
2023-02-11T11:37:29.400Z,38.10
2023-02-11T11:40:22.406Z,34.63
2023-02-11T11:43:12.165Z,35.67
2023-02-11T11:45:38.814Z,35.00
2023-02-11T11:48:26.951Z,34.80
2023-02-11T11:50:59.790Z,34.60
2023-02-11T11:53:34.224Z,34.30
2023-02-11T11:56:05.306Z,34.97
2023-02-11T11:58:33.708Z,36.47
2023-02-11T12:01:39.329Z,35.20
2023-02-11T12:04:36.485Z,35.67
2023-02-11T12:07:23.318Z,33.73
2023-02-11T12:10:09.769Z,36.07
2023-02-11T12:12:55.872Z,39.23
2023-02-11T12:15:42.958Z,35.57
2023-02-11T12:18:50.672Z,36.40
2023-02-11T12:21:52.531Z,30.97
2023-02-11T12:25:00.217Z,32.20
2023-02-11T12:27:38.807Z,33.20
2023-02-11T12:30:34.183Z,36.43
2023-02-11T12:33:28.634Z,39.93
2023-02-11T12:36:16.884Z,35.30
2023-02-11T12:39:29.411Z,35.30
2023-02-11T12:42:32.725Z,30.97
2023-02-11T12:45:11.054Z,33.87
2023-02-11T12:47:46.641Z,34.60
2023-02-11T12:50:21.057Z,38.17
2023-02-11T12:52:53.662Z,35.90
2023-02-11T12:55:23.425Z,33.10
2023-02-11T12:57:53.535Z,33.77
2023-02-11T13:00:26.808Z,31.70
2023-02-11T13:03:33.099Z,33.67
2023-02-11T13:06:05.376Z,34.53
2023-02-11T13:08:46.137Z,36.60
2023-02-11T13:11:44.087Z,34.70
2023-02-11T13:14:27.002Z,32.13
2023-02-11T13:16:55.051Z,31.27
2023-02-11T13:19:30.419Z,32.80
2023-02-11T13:22:05.590Z,32.63
2023-02-11T13:24:44.547Z,35.10
2023-02-11T13:27:20.261Z,36.33
2023-02-11T13:30:14.745Z,33.40
2023-02-11T13:32:56.603Z,32.00
2023-02-11T13:35:40.921Z,34.00
2023-02-11T13:38:16.350Z,34.20
2023-02-11T13:40:43.395Z,33.77
2023-02-11T13:43:23.251Z,30.93
2023-02-11T13:45:52.279Z,31.77
2023-02-11T13:48:24.834Z,34.73
2023-02-11T13:50:58.943Z,31.70
2023-02-11T13:53:26.003Z,33.70
2023-02-11T13:56:09.952Z,33.30
2023-02-11T13:58:46.922Z,31.53
2023-02-11T14:01:39.642Z,32.10
2023-02-11T14:04:51.282Z,30.90
2023-02-11T14:07:51.883Z,31.70
2023-02-11T14:10:40.951Z,32.73
2023-02-11T14:13:37.032Z,30.10
2023-02-11T14:16:36.874Z,30.97
2023-02-11T14:19:04.528Z,36.30
2023-02-11T14:21:38.266Z,35.03
2023-02-11T14:24:04.951Z,34.10
2023-02-11T14:26:36.432Z,33.90
2023-02-11T14:29:17.929Z,33.93
2023-02-11T14:31:54.991Z,30.83
2023-02-11T14:34:40.995Z,30.03
2023-02-11T14:37:30.402Z,33.40
2023-02-11T14:40:26.781Z,35.33
2023-02-11T14:42:54.770Z,33.73
2023-02-11T14:45:26.312Z,34.43
2023-02-11T14:48:08.299Z,37.03
2023-02-11T14:50:43.160Z,35.10
2023-02-11T14:53:22.517Z,36.03
2023-02-11T14:55:54.304Z,34.00
2023-02-11T14:58:23.995Z,29.17
2023-02-11T15:01:09.049Z,33.73
2023-02-11T15:03:38.460Z,34.37
2023-02-11T15:06:13.919Z,33.43
2023-02-11T15:08:47.340Z,34.30
2023-02-11T15:11:17.387Z,33.00
2023-02-11T15:13:47.484Z,32.97
2023-02-11T15:16:18.564Z,33.63
2023-02-11T15:19:01.257Z,32.87
2023-02-11T15:21:30.202Z,32.13
2023-02-11T15:24:02.274Z,32.13
2023-02-11T15:26:29.824Z,33.53
2023-02-11T15:28:56.292Z,30.50
2023-02-11T15:31:25.437Z,31.10
2023-02-11T15:33:53.161Z,32.40
2023-02-11T15:36:28.194Z,30.90
2023-02-11T15:39:29.312Z,33.00
2023-02-11T15:41:55.860Z,31.50
2023-02-11T15:44:33.073Z,32.00
2023-02-11T15:46:59.916Z,30.20
2023-02-11T15:49:26.853Z,32.00
2023-02-11T15:51:55.722Z,31.70
2023-02-11T15:54:26.787Z,31.50
2023-02-11T15:56:58.858Z,31.03
2023-02-11T15:59:32.693Z,31.00
2023-02-11T16:02:09.123Z,30.10
2023-02-11T16:04:36.263Z,30.60
2023-02-11T16:07:03.097Z,30.63
2023-02-11T16:09:35.231Z,32.47
2023-02-11T16:12:24.319Z,31.57
2023-02-11T16:14:50.746Z,31.10
2023-02-11T16:17:28.948Z,30.03
2023-02-11T16:19:55.897Z,31.40
2023-02-11T16:22:29.913Z,31.10
2023-02-11T16:24:59.915Z,32.60
2023-02-11T16:27:34.011Z,31.40
2023-02-11T16:30:00.647Z,31.40
2023-02-11T16:32:28.673Z,33.90
2023-02-11T16:34:58.010Z,34.80
2023-02-11T16:37:25.386Z,36.00
2023-02-11T16:39:58.394Z,35.73
2023-02-11T16:42:25.192Z,35.20
2023-02-11T16:44:51.666Z,35.20
2023-02-11T16:47:24.333Z,36.07
2023-02-11T16:49:50.977Z,37.80
2023-02-11T16:52:18.145Z,36.10
2023-02-11T16:54:44.667Z,34.30
2023-02-11T16:57:22.660Z,34.07
2023-02-11T16:59:49.537Z,34.50
2023-02-11T17:02:24.393Z,34.30
2023-02-11T17:04:53.440Z,31.97
2023-02-11T17:07:19.937Z,34.60
2023-02-11T17:09:46.446Z,32.80
2023-02-11T17:12:12.855Z,34.30
2023-02-11T17:14:39.306Z,34.27
2023-02-11T17:17:05.808Z,35.67
2023-02-11T17:19:32.257Z,34.50
2023-02-11T17:21:58.769Z,35.83
2023-02-11T17:24:25.114Z,35.03
2023-02-11T17:26:51.648Z,34.03
2023-02-11T17:29:22.514Z,34.23
2023-02-11T17:31:49.778Z,33.70
2023-02-11T17:34:16.791Z,34.00
2023-02-11T17:36:43.317Z,30.67
2023-02-11T17:39:10.287Z,31.53
2023-02-11T17:41:38.355Z,31.83
2023-02-11T17:44:06.128Z,31.90
2023-02-11T17:46:34.477Z,32.30
2023-02-11T17:49:01.947Z,33.13
2023-02-11T17:51:30.477Z,33.47
2023-02-11T17:54:02.543Z,32.00
2023-02-11T17:56:32.169Z,35.20
2023-02-11T17:58:58.735Z,33.57
2023-02-11T18:01:29.730Z,38.63
2023-02-11T18:03:56.218Z,37.53
2023-02-11T18:06:22.732Z,36.87
2023-02-11T18:08:49.483Z,37.60
2023-02-11T18:11:16.627Z,37.33
2023-02-11T18:13:45.163Z,35.07
2023-02-11T18:16:15.893Z,33.73
2023-02-11T18:18:43.475Z,32.50
2023-02-11T18:21:18.160Z,32.97
2023-02-11T18:23:45.256Z,33.37
2023-02-11T18:26:13.624Z,34.37
2023-02-11T18:28:42.667Z,36.13
2023-02-11T18:31:10.884Z,34.40
2023-02-11T18:33:38.970Z,35.60
2023-02-11T18:36:11.760Z,34.43
2023-02-11T18:38:38.702Z,36.23
2023-02-11T18:41:05.468Z,35.57
2023-02-11T18:43:33.540Z,35.80
2023-02-11T18:46:01.569Z,36.93
2023-02-11T18:48:28.512Z,40.10
2023-02-11T18:50:55.448Z,40.53
2023-02-11T18:53:23.051Z,42.47
2023-02-11T18:55:49.617Z,36.60
2023-02-11T18:58:16.253Z,34.20
2023-02-11T19:00:45.621Z,34.43
2023-02-11T19:03:12.018Z,33.67
2023-02-11T19:05:47.368Z,29.60
2023-02-11T19:08:14.199Z,30.40
2023-02-11T19:10:42.119Z,31.37
2023-02-11T19:13:08.810Z,28.23
2023-02-11T19:15:40.202Z,28.53
2023-02-11T19:18:06.621Z,29.50
2023-02-11T19:20:33.386Z,27.80
2023-02-11T19:23:00.701Z,29.90
2023-02-11T19:25:27.232Z,30.30
2023-02-11T19:27:53.667Z,28.93
2023-02-11T19:30:20.231Z,31.60
2023-02-11T19:32:46.736Z,32.97
2023-02-11T19:35:13.187Z,32.43
2023-02-11T19:37:39.606Z,34.17
2023-02-11T19:40:07.443Z,33.10
2023-02-11T19:42:33.910Z,33.07
2023-02-11T19:45:00.272Z,33.53
2023-02-11T19:47:27.601Z,31.77
2023-02-11T19:49:54.453Z,28.73
2023-02-11T19:52:20.995Z,28.97
2023-02-11T19:54:47.472Z,29.20
2023-02-11T19:57:13.871Z,28.17
2023-02-11T19:59:40.403Z,30.87
2023-02-11T20:02:06.820Z,27.87
2023-02-11T20:04:33.362Z,27.73
2023-02-11T20:06:59.808Z,28.50
2023-02-11T20:09:27.309Z,26.77
2023-02-11T20:11:53.765Z,27.30
2023-02-11T20:14:20.275Z,27.77
2023-02-11T20:16:49.605Z,27.00
2023-02-11T20:19:18.884Z,29.07
2023-02-11T20:21:47.562Z,27.20
2023-02-11T20:24:15.390Z,28.17
2023-02-11T20:26:42.468Z,27.77
2023-02-11T20:29:09.090Z,29.30
2023-02-11T20:31:35.768Z,28.17
2023-02-11T20:34:03.016Z,26.40
2023-02-11T20:36:32.277Z,25.03
2023-02-11T20:38:59.924Z,26.80
2023-02-11T20:41:34.163Z,26.40
2023-02-11T20:44:04.374Z,25.20
2023-02-11T20:46:32.958Z,26.00
2023-02-11T20:49:00.727Z,30.23
2023-02-11T20:51:30.371Z,31.00
2023-02-11T20:53:57.059Z,29.07
2023-02-11T20:56:29.161Z,34.27
2023-02-11T20:58:57.887Z,33.07
2023-02-11T21:01:33.820Z,32.93
2023-02-11T21:04:06.274Z,33.10
2023-02-11T21:06:43.974Z,36.23
2023-02-11T21:09:14.014Z,34.00
2023-02-11T21:11:41.416Z,29.30
2023-02-11T21:14:08.326Z,27.37
2023-02-11T21:16:34.747Z,25.27
2023-02-11T21:19:01.325Z,26.20
2023-02-11T21:21:27.771Z,24.60
2023-02-11T21:23:56.250Z,25.77
2023-02-11T21:26:23.009Z,23.30
2023-02-11T21:28:50.063Z,24.60
2023-02-11T21:31:22.948Z,24.33
2023-02-11T21:33:50.854Z,22.63
2023-02-11T21:36:17.353Z,23.37
2023-02-11T21:38:43.829Z,23.77
2023-02-11T21:41:11.823Z,25.07
2023-02-11T21:43:38.506Z,25.47
2023-02-11T21:46:14.011Z,27.07
2023-02-11T21:48:40.703Z,24.97
2023-02-11T21:51:11.214Z,26.33
2023-02-11T21:53:37.648Z,28.77
2023-02-11T21:56:13.037Z,25.50
2023-02-11T21:58:39.534Z,27.97
2023-02-11T22:01:15.524Z,26.83
2023-02-11T22:03:42.672Z,28.40
2023-02-11T22:06:11.174Z,27.30
2023-02-11T22:08:38.593Z,27.37
2023-02-11T22:11:07.009Z,26.27
2023-02-11T22:13:34.455Z,27.33
2023-02-11T22:16:02.846Z,25.63
2023-02-11T22:18:30.402Z,25.40
2023-02-11T22:21:19.080Z,26.97
2023-02-11T22:23:46.001Z,24.77
2023-02-11T22:26:16.532Z,25.00
2023-02-11T22:28:43.484Z,24.27
2023-02-11T22:31:13.413Z,24.00
2023-02-11T22:33:40.337Z,24.50
2023-02-11T22:36:12.185Z,24.87
2023-02-11T22:38:38.607Z,22.87
2023-02-11T22:41:07.795Z,21.47
2023-02-11T22:43:34.251Z,20.43
2023-02-11T22:46:05.982Z,22.47
2023-02-11T22:48:33.462Z,22.60
2023-02-11T22:51:12.309Z,23.07
2023-02-11T22:53:38.920Z,21.27
2023-02-11T22:56:15.056Z,22.07
2023-02-11T22:58:41.930Z,21.90
2023-02-11T23:01:08.473Z,23.07
2023-02-11T23:03:35.543Z,23.07
2023-02-11T23:06:02.064Z,24.47
2023-02-11T23:08:30.327Z,25.33
2023-02-11T23:11:02.414Z,22.53
2023-02-11T23:13:28.841Z,25.00
2023-02-11T23:15:55.652Z,24.60
2023-02-11T23:18:22.316Z,24.80
2023-02-11T23:20:48.750Z,23.97
2023-02-11T23:23:15.169Z,24.13
2023-02-11T23:25:44.817Z,27.10
2023-02-11T23:28:12.299Z,24.67
2023-02-11T23:30:39.343Z,23.20
2023-02-11T23:33:05.935Z,24.17
2023-02-11T23:35:32.772Z,23.57
2023-02-11T23:37:59.214Z,21.00
2023-02-11T23:40:25.758Z,22.00
2023-02-11T23:42:52.307Z,22.20
2023-02-11T23:45:18.725Z,21.67
2023-02-11T23:47:45.185Z,23.23
2023-02-11T23:50:11.815Z,24.03
2023-02-11T23:52:38.273Z,22.27
2023-02-11T23:55:05.185Z,22.03
2023-02-11T23:57:32.850Z,21.83
2023-02-11T23:59:59.276Z,23.20
